createdAt,value
2023-01-02T00:02:02.792Z,11.90
2023-01-02T00:04:29.374Z,11.90
2023-01-02T00:06:55.920Z,11.90
2023-01-02T00:09:22.494Z,11.90
2023-01-02T00:11:49.071Z,11.90
2023-01-02T00:14:15.710Z,11.90
2023-01-02T00:16:42.263Z,12.00
2023-01-02T00:19:08.858Z,12.00
2023-01-02T00:21:35.590Z,12.00
2023-01-02T00:24:02.333Z,12.10
2023-01-02T00:26:30.233Z,12.20
2023-01-02T00:28:56.998Z,12.30
2023-01-02T00:31:23.631Z,12.40
2023-01-02T00:33:50.296Z,12.50
2023-01-02T00:36:16.868Z,12.60
2023-01-02T00:38:43.502Z,12.70
2023-01-02T00:41:10.183Z,12.80
2023-01-02T00:43:37.455Z,12.80
2023-01-02T00:46:10.894Z,12.80
2023-01-02T00:48:38.056Z,12.80
2023-01-02T00:51:04.759Z,12.90
2023-01-02T00:53:31.386Z,12.80
2023-01-02T00:55:57.949Z,12.90
2023-01-02T00:58:24.500Z,12.80
2023-01-02T01:00:51.629Z,12.80
2023-01-02T01:03:18.469Z,12.80
2023-01-02T01:05:45.087Z,12.80
2023-01-02T01:08:11.657Z,12.90
2023-01-02T01:10:38.285Z,13.00
2023-01-02T01:13:05.725Z,13.10
2023-01-02T01:15:35.713Z,13.10
2023-01-02T01:18:02.279Z,13.10
2023-01-02T01:20:29.265Z,13.00
2023-01-02T01:22:55.888Z,13.00
2023-01-02T01:25:22.508Z,12.90
2023-01-02T01:27:52.050Z,12.80
2023-01-02T01:30:18.622Z,12.70
2023-01-02T01:32:45.190Z,12.60
2023-01-02T01:35:11.786Z,12.60
2023-01-02T01:37:39.911Z,12.60
2023-01-02T01:40:07.218Z,12.60
2023-01-02T01:42:34.342Z,12.60
2023-01-02T01:45:01.216Z,12.60
2023-01-02T01:47:38.679Z,12.70
2023-01-02T01:50:25.171Z,12.70
2023-01-02T01:53:02.562Z,12.80
2023-01-02T01:55:33.375Z,12.80
2023-01-02T01:58:05.555Z,12.90
2023-01-02T02:00:32.661Z,13.00
2023-01-02T02:03:08.523Z,13.10
2023-01-02T02:05:36.307Z,13.10
2023-01-02T02:08:28.151Z,13.20
2023-01-02T02:10:58.123Z,13.20
2023-01-02T02:13:24.924Z,13.30
2023-01-02T02:16:06.585Z,13.30
2023-01-02T02:18:45.339Z,13.30
2023-01-02T02:21:42.156Z,13.30
2023-01-02T02:24:35.717Z,13.30
2023-01-02T02:27:31.678Z,13.20
2023-01-02T02:30:48.767Z,13.20
2023-01-02T02:33:36.498Z,13.10
2023-01-02T02:36:16.791Z,13.10
2023-01-02T02:39:14.450Z,13.10
2023-01-02T02:42:06.189Z,13.20
2023-01-02T02:44:49.929Z,13.30
2023-01-02T02:47:29.703Z,13.30
2023-01-02T02:50:10.385Z,13.40
2023-01-02T02:52:57.028Z,13.40
2023-01-02T02:55:29.088Z,13.50
2023-01-02T02:57:58.381Z,13.50
2023-01-02T03:00:24.982Z,13.50
2023-01-02T03:02:51.628Z,13.40
2023-01-02T03:05:34.995Z,13.50
2023-01-02T03:08:19.356Z,13.50
2023-01-02T03:10:51.963Z,13.40
2023-01-02T03:13:43.036Z,13.40
2023-01-02T03:16:12.367Z,13.30
2023-01-02T03:18:58.738Z,13.30
2023-01-02T03:21:34.956Z,13.20
2023-01-02T03:24:09.967Z,13.30
2023-01-02T03:26:39.684Z,13.30
2023-01-02T03:29:24.203Z,13.30
2023-01-02T03:31:54.094Z,13.30
2023-01-02T03:34:25.990Z,13.30
2023-01-02T03:36:58.556Z,13.20
2023-01-02T03:39:29.823Z,13.20
2023-01-02T03:42:01.282Z,13.10
2023-01-02T03:44:38.584Z,13.10
2023-01-02T03:47:33.351Z,13.10
2023-01-02T03:50:06.513Z,13.00
2023-01-02T03:52:33.113Z,13.00
2023-01-02T03:55:01.214Z,13.00
2023-01-02T03:57:39.174Z,12.90
2023-01-02T04:00:09.354Z,12.90
2023-01-02T04:03:03.273Z,13.00
2023-01-02T04:05:40.613Z,13.00
2023-01-02T04:08:56.751Z,13.00
2023-01-02T04:11:25.888Z,13.00
2023-01-02T04:13:58.153Z,13.00
2023-01-02T04:16:29.172Z,12.90
2023-01-02T04:19:02.664Z,12.90
2023-01-02T04:21:33.749Z,12.90
2023-01-02T04:24:17.063Z,12.90
2023-01-02T04:27:13.522Z,12.90
2023-01-02T04:29:40.888Z,12.90
2023-01-02T04:32:43.632Z,12.80
2023-01-02T04:35:20.148Z,12.80
2023-01-02T04:37:47.444Z,12.80
2023-01-02T04:40:27.103Z,12.80
2023-01-02T04:42:53.847Z,12.80
2023-01-02T04:45:20.583Z,12.80
2023-01-02T04:47:50.994Z,12.90
2023-01-02T04:50:17.612Z,12.90
2023-01-02T04:52:44.193Z,13.00
2023-01-02T04:55:10.906Z,13.00
2023-01-02T04:57:38.250Z,13.00
2023-01-02T05:00:07.060Z,13.10
2023-01-02T05:02:37.742Z,13.20
2023-01-02T05:05:05.586Z,13.20
2023-01-02T05:07:33.852Z,13.20
2023-01-02T05:10:00.504Z,13.20
2023-01-02T05:12:27.070Z,13.20
2023-01-02T05:14:53.713Z,13.20
2023-01-02T05:17:20.297Z,13.20
2023-01-02T05:19:46.890Z,13.20
2023-01-02T05:22:32.324Z,13.20
2023-01-02T05:24:58.967Z,13.20
2023-01-02T05:27:25.637Z,13.10
2023-01-02T05:29:52.212Z,13.00
2023-01-02T05:32:18.825Z,13.00
2023-01-02T05:34:45.423Z,12.90
2023-01-02T05:37:11.975Z,12.80
2023-01-02T05:39:38.546Z,12.80
2023-01-02T05:42:05.344Z,12.80
2023-01-02T05:44:31.920Z,12.70
2023-01-02T05:46:58.563Z,12.70
2023-01-02T05:49:25.199Z,12.70
2023-01-02T05:51:51.761Z,12.70
2023-01-02T05:54:18.383Z,12.70
2023-01-02T05:56:44.945Z,12.70
2023-01-02T05:59:14.553Z,12.70
2023-01-02T06:01:41.289Z,12.70
2023-01-02T06:04:08.175Z,12.70
2023-01-02T06:06:37.378Z,12.60
2023-01-02T06:09:05.675Z,12.60
2023-01-02T06:11:33.152Z,12.50
2023-01-02T06:14:00.356Z,12.50
2023-01-02T06:16:27.408Z,12.40
2023-01-02T06:18:54.995Z,12.30
2023-01-02T06:21:22.303Z,12.30
2023-01-02T06:23:53.752Z,12.30
2023-01-02T06:26:21.287Z,12.30
2023-01-02T06:28:53.791Z,12.30
2023-01-02T06:31:21.825Z,12.30
2023-01-02T06:33:52.881Z,12.30
2023-01-02T06:36:19.526Z,12.30
2023-01-02T06:38:46.766Z,12.40
2023-01-02T06:41:14.478Z,12.50
2023-01-02T06:43:43.525Z,12.60
2023-01-02T06:46:11.528Z,12.70
2023-01-02T06:48:39.029Z,12.70
2023-01-02T06:51:07.331Z,12.80
2023-01-02T06:53:38.328Z,12.80
2023-01-02T06:56:06.098Z,12.80
2023-01-02T06:58:34.476Z,12.80
2023-01-02T07:01:07.192Z,12.80
2023-01-02T07:03:34.227Z,12.80
2023-01-02T07:06:10.049Z,12.80
2023-01-02T07:08:37.508Z,12.80
2023-01-02T07:11:17.097Z,12.80
2023-01-02T07:13:45.539Z,12.80
2023-01-02T07:16:14.792Z,12.80
2023-01-02T07:18:41.792Z,12.90
2023-01-02T07:21:10.064Z,12.90
2023-01-02T07:23:37.138Z,12.90
2023-01-02T07:26:05.639Z,13.00
2023-01-02T07:28:33.689Z,13.00
2023-01-02T07:31:02.367Z,13.00
2023-01-02T07:33:30.275Z,13.10
2023-01-02T07:36:01.773Z,13.10
2023-01-02T07:38:28.937Z,13.10
2023-01-02T07:40:55.544Z,13.20
2023-01-02T07:43:22.636Z,13.20
2023-01-02T07:45:50.589Z,13.30
2023-01-02T07:48:18.178Z,13.30
2023-01-02T07:50:45.686Z,13.30
2023-01-02T07:53:12.776Z,13.40
2023-01-02T07:55:39.501Z,13.50
2023-01-02T07:58:06.091Z,13.50
2023-01-02T08:00:32.718Z,13.60
2023-01-02T08:03:00.254Z,13.70
2023-01-02T08:05:26.912Z,13.70
2023-01-02T08:07:53.477Z,13.70
2023-01-02T08:10:20.071Z,13.70
2023-01-02T08:12:46.637Z,13.70
2023-01-02T08:15:13.438Z,13.70
2023-01-02T08:17:41.235Z,13.70
2023-01-02T08:20:08.964Z,13.70
2023-01-02T08:22:35.774Z,13.70
2023-01-02T08:25:02.617Z,13.60
2023-01-02T08:27:29.264Z,13.70
2023-01-02T08:32:46.512Z,13.70
2023-01-02T08:35:13.101Z,13.70
2023-01-02T08:37:39.838Z,13.70
2023-01-02T08:40:06.835Z,13.60
2023-01-02T08:42:33.552Z,13.70
2023-01-02T08:45:00.183Z,13.80
2023-01-02T08:47:26.786Z,13.70
2023-01-02T08:49:53.675Z,13.70
2023-01-02T08:52:20.259Z,13.80
2023-01-02T08:54:46.840Z,13.80
2023-01-02T08:57:13.510Z,13.90
2023-01-02T08:59:40.194Z,13.90
2023-01-02T09:02:07.016Z,13.90
2023-01-02T09:04:33.670Z,13.90
2023-01-02T09:07:00.236Z,14.00
2023-01-02T09:09:26.936Z,14.00
2023-01-02T09:11:53.582Z,14.00
2023-01-02T09:14:21.798Z,14.00
2023-01-02T09:16:49.763Z,14.10
2023-01-02T09:19:16.800Z,14.10
2023-01-02T09:21:43.504Z,14.10
2023-01-02T09:24:10.440Z,14.20
2023-01-02T09:26:42.612Z,14.30
2023-01-02T09:29:10.473Z,14.50
2023-01-02T09:31:37.667Z,14.40
2023-01-02T09:34:04.447Z,14.40
2023-01-02T09:36:32.248Z,14.30
2023-01-02T09:39:01.257Z,14.40
2023-01-02T09:41:31.580Z,14.30
2023-01-02T09:44:01.239Z,14.30
2023-01-02T09:46:40.548Z,14.40
2023-01-02T09:49:10.495Z,14.40
2023-01-02T09:51:37.698Z,14.40
2023-01-02T09:54:06.311Z,14.40
2023-01-02T09:56:41.409Z,14.30
2023-01-02T09:59:29.006Z,14.30
2023-01-02T10:02:20.030Z,14.20
2023-01-02T10:05:15.738Z,14.00
2023-01-02T10:08:06.293Z,13.80
2023-01-02T10:10:37.674Z,13.70
2023-01-02T10:14:08.404Z,13.60
2023-01-02T10:16:19.863Z,13.60
2023-01-02T10:18:51.307Z,13.50
2023-01-02T10:21:25.834Z,13.50
2023-01-02T10:23:56.638Z,13.50
2023-01-02T10:26:31.043Z,13.50
2023-01-02T10:29:09.970Z,13.50
2023-01-02T10:31:40.696Z,13.60
2023-01-02T10:34:22.254Z,13.60
2023-01-02T10:36:50.068Z,13.60
2023-01-02T10:39:22.454Z,13.50
2023-01-02T10:41:50.611Z,13.50
2023-01-02T10:44:22.283Z,13.50
2023-01-02T10:46:48.875Z,13.50
2023-01-02T10:49:15.978Z,13.50
2023-01-02T10:51:55.376Z,13.50
2023-01-02T10:54:22.035Z,13.50
2023-01-02T10:56:50.938Z,13.30
2023-01-02T10:59:29.118Z,13.40
2023-01-02T11:01:58.456Z,13.30
2023-01-02T11:04:30.064Z,13.00
2023-01-02T11:06:59.547Z,12.80
2023-01-02T11:09:29.088Z,12.60
2023-01-02T11:12:07.764Z,12.40
2023-01-02T11:14:36.294Z,12.30
2023-01-02T11:17:16.121Z,12.20
2023-01-02T11:19:45.305Z,12.20
2023-01-02T11:22:15.059Z,12.20
2023-01-02T11:24:59.524Z,12.20
2023-01-02T11:27:35.520Z,12.20
2023-01-02T11:30:03.960Z,12.20
2023-01-02T11:32:40.950Z,12.10
2023-01-02T11:35:38.253Z,12.20
2023-01-02T11:38:12.030Z,12.30
2023-01-02T11:40:50.816Z,12.20
2023-01-02T11:43:38.465Z,12.20
2023-01-02T11:46:09.416Z,12.20
2023-01-02T11:48:36.933Z,12.30
2023-01-02T11:51:03.655Z,12.30
2023-01-02T11:53:41.149Z,12.20
2023-01-02T11:56:32.267Z,12.20
2023-01-02T11:59:20.487Z,12.20
2023-01-02T12:02:02.190Z,12.20
2023-01-02T12:04:29.350Z,12.20
2023-01-02T12:07:32.487Z,12.20
2023-01-02T12:10:04.895Z,11.90
2023-01-02T12:12:50.306Z,11.70
2023-01-02T12:15:50.141Z,11.60
2023-01-02T12:18:32.831Z,11.60
2023-01-02T12:21:19.652Z,11.50
2023-01-02T12:23:57.107Z,11.50
2023-01-02T12:26:42.060Z,11.50
2023-01-02T12:29:47.657Z,11.50
2023-01-02T12:32:53.480Z,11.40
2023-01-02T12:35:47.575Z,11.50
2023-01-02T12:38:43.993Z,11.50
2023-01-02T12:41:20.411Z,11.50
2023-01-02T12:44:02.719Z,11.40
2023-01-02T12:47:00.524Z,11.40
2023-01-02T12:49:28.050Z,11.40
2023-01-02T12:52:09.682Z,11.30
2023-01-02T12:54:49.548Z,11.30
2023-01-02T12:57:30.221Z,11.20
2023-01-02T13:00:14.901Z,11.30
2023-01-02T13:03:07.075Z,11.20
2023-01-02T13:05:48.764Z,11.20
2023-01-02T13:08:24.937Z,11.10
2023-01-02T13:10:51.995Z,11.10
2023-01-02T13:13:20.827Z,11.00
2023-01-02T13:15:50.298Z,11.00
2023-01-02T13:18:30.212Z,11.00
2023-01-02T13:21:12.633Z,10.90
2023-01-02T13:23:43.235Z,10.90
2023-01-02T13:26:19.058Z,10.80
2023-01-02T13:29:03.768Z,10.80
2023-01-02T13:31:46.342Z,10.70
2023-01-02T13:34:26.364Z,10.60
2023-01-02T13:37:07.468Z,10.40
2023-01-02T13:39:39.899Z,10.30
2023-01-02T13:42:28.011Z,10.20
2023-01-02T13:44:59.046Z,10.10
2023-01-02T13:47:36.393Z,10.10
2023-01-02T13:50:03.007Z,10.00
2023-01-02T13:52:29.659Z,10.00
2023-01-02T13:55:31.192Z,10.00
2023-01-02T13:58:13.276Z,10.00
2023-01-02T14:00:51.639Z,10.00
2023-01-02T14:03:24.083Z,10.00
2023-01-02T14:05:58.885Z,10.00
2023-01-02T14:08:38.308Z,9.90
2023-01-02T14:11:30.306Z,9.90
2023-01-02T14:14:46.728Z,9.80
2023-01-02T14:17:32.143Z,9.80
2023-01-02T14:20:16.980Z,9.80
2023-01-02T14:22:53.367Z,9.80
2023-01-02T14:25:21.570Z,9.80
2023-01-02T14:27:55.971Z,9.80
2023-01-02T14:30:39.420Z,9.80
2023-01-02T14:33:09.178Z,9.80
2023-01-02T14:35:48.793Z,9.80
2023-01-02T14:38:15.325Z,9.80
2023-01-02T14:40:43.353Z,9.80
2023-01-02T14:43:32.144Z,9.80
2023-01-02T14:46:03.749Z,9.80
2023-01-02T14:48:35.903Z,9.80
2023-01-02T14:51:09.343Z,9.70
2023-01-02T14:53:43.828Z,9.80
2023-01-02T14:56:19.284Z,9.80
2023-01-02T14:58:48.212Z,9.80
2023-01-02T15:01:44.106Z,9.80
2023-01-02T15:04:22.961Z,9.80
2023-01-02T15:07:04.654Z,9.80
2023-01-02T15:09:40.372Z,9.80
2023-01-02T15:12:47.447Z,9.80
2023-01-02T15:15:20.301Z,9.80
2023-01-02T15:17:48.937Z,9.80
2023-01-02T15:20:22.523Z,9.80
2023-01-02T15:22:52.346Z,9.80
2023-01-02T15:25:32.648Z,9.80
2023-01-02T15:27:59.303Z,9.80
2023-01-02T15:30:34.385Z,9.80
2023-01-02T15:33:00.971Z,9.80
2023-01-02T15:35:32.498Z,9.80
2023-01-02T15:37:59.130Z,9.80
2023-01-02T15:40:34.327Z,9.80
2023-01-02T15:43:23.003Z,9.70
2023-01-02T15:45:51.725Z,9.80
2023-01-02T15:48:23.531Z,9.80
2023-01-02T15:50:53.012Z,9.70
2023-01-02T15:53:32.278Z,9.80
2023-01-02T15:55:59.000Z,9.80
2023-01-02T15:58:30.402Z,9.70
2023-01-02T16:01:20.620Z,9.70
2023-01-02T16:04:03.015Z,9.60
2023-01-02T16:06:38.973Z,9.60
2023-01-02T16:09:08.067Z,9.60
2023-01-02T16:11:44.671Z,9.60
2023-01-02T16:14:20.238Z,9.60
2023-01-02T16:16:53.078Z,9.60
2023-01-02T16:19:37.383Z,9.60
2023-01-02T16:22:27.105Z,9.50
2023-01-02T16:25:18.161Z,9.50
2023-01-02T16:27:56.135Z,9.40
2023-01-02T16:30:25.725Z,9.40
2023-01-02T16:32:52.556Z,9.40
2023-01-02T16:35:25.674Z,9.40
2023-01-02T16:38:25.397Z,9.40
2023-01-02T16:41:02.985Z,9.40
2023-01-02T16:43:30.911Z,9.30
2023-01-02T16:45:58.925Z,9.40
2023-01-02T16:48:28.261Z,9.40
2023-01-02T16:50:56.911Z,9.30
2023-01-02T16:53:30.470Z,9.40
2023-01-02T16:55:58.551Z,9.30
2023-01-02T16:58:25.417Z,9.30
2023-01-02T17:00:53.313Z,9.30
2023-01-02T17:03:22.485Z,9.30
2023-01-02T17:06:01.744Z,9.30
2023-01-02T17:08:31.513Z,9.30
2023-01-02T17:10:58.814Z,9.30
2023-01-02T17:13:26.557Z,9.30
2023-01-02T17:15:53.159Z,9.30
2023-01-02T17:18:20.011Z,9.30
2023-01-02T17:20:46.607Z,9.30
2023-01-02T17:23:13.628Z,9.30
2023-01-02T17:25:43.489Z,9.30
2023-01-02T17:28:10.184Z,9.30
2023-01-02T17:30:36.840Z,9.40
2023-01-02T17:33:04.337Z,9.30
2023-01-02T17:35:32.801Z,9.30
2023-01-02T17:37:59.362Z,9.30
2023-01-02T17:40:26.226Z,9.30
2023-01-02T17:42:53.605Z,9.20
2023-01-02T17:45:20.500Z,9.30
2023-01-02T17:50:33.756Z,9.20
2023-01-02T17:53:00.356Z,9.20
2023-01-02T17:55:26.936Z,9.20
2023-01-02T17:57:54.009Z,9.20
2023-01-02T18:00:23.286Z,9.20
2023-01-02T18:02:51.507Z,9.20
2023-01-02T18:05:18.353Z,9.20
2023-01-02T18:07:44.987Z,9.20
2023-01-02T18:10:16.016Z,9.20
2023-01-02T18:12:46.679Z,9.30
2023-01-02T18:15:15.175Z,9.20
2023-01-02T18:17:42.942Z,9.20
2023-01-02T18:20:16.006Z,9.20
2023-01-02T18:22:48.994Z,9.20
2023-01-02T18:25:27.332Z,9.20
2023-01-02T18:28:04.902Z,9.20
2023-01-02T18:30:31.460Z,9.30
2023-01-02T18:33:13.574Z,9.30
2023-01-02T18:35:57.155Z,9.30
2023-01-02T18:38:34.403Z,9.20
2023-01-02T18:41:11.537Z,9.20
2023-01-02T18:43:39.248Z,9.20
2023-01-02T18:46:17.787Z,9.20
2023-01-02T18:48:44.843Z,9.20
2023-01-02T18:51:24.270Z,9.20
2023-01-02T18:53:56.851Z,9.20
2023-01-02T18:56:25.827Z,9.20
2023-01-02T18:59:22.054Z,9.20
2023-01-02T19:01:51.911Z,9.30
2023-01-02T19:04:28.443Z,9.20
2023-01-02T19:06:57.673Z,9.20
2023-01-02T19:09:33.609Z,9.30
2023-01-02T19:12:50.993Z,9.20
2023-01-02T19:15:40.597Z,9.20
2023-01-02T19:18:22.688Z,9.20
2023-01-02T19:21:17.846Z,9.20
2023-01-02T19:24:24.109Z,9.20
2023-01-02T19:26:55.565Z,9.20
2023-01-02T19:29:25.397Z,9.20
2023-01-02T19:32:13.723Z,9.20
2023-01-02T19:34:47.621Z,9.10
2023-01-02T19:37:23.746Z,9.10
2023-01-02T19:39:55.628Z,9.10
2023-01-02T19:42:24.521Z,9.10
2023-01-02T19:45:08.916Z,9.10
2023-01-02T19:47:37.684Z,9.10
2023-01-02T19:50:08.072Z,9.10
2023-01-02T19:52:34.950Z,9.00
2023-01-02T19:55:02.383Z,9.10
2023-01-02T19:57:29.044Z,9.00
2023-01-02T19:59:56.029Z,9.00
2023-01-02T20:02:23.762Z,9.00
2023-01-02T20:04:52.164Z,9.00
2023-01-02T20:07:19.118Z,8.90
2023-01-02T20:09:46.466Z,8.90
2023-01-02T20:12:32.124Z,8.90
2023-01-02T20:15:10.962Z,8.80
2023-01-02T20:17:39.383Z,8.80
2023-01-02T20:20:10.441Z,8.80
2023-01-02T20:22:37.244Z,8.80
2023-01-02T20:25:04.417Z,8.70
2023-01-02T20:27:31.287Z,8.70
2023-01-02T20:29:57.868Z,8.70
2023-01-02T20:32:24.956Z,8.70
2023-01-02T20:34:52.330Z,8.70
2023-01-02T20:37:20.966Z,8.70
2023-01-02T20:39:53.065Z,8.70
2023-01-02T20:42:21.016Z,8.70
2023-01-02T20:44:48.114Z,8.70
2023-01-02T20:47:15.072Z,8.70
2023-01-02T20:49:41.719Z,8.70
2023-01-02T20:52:08.578Z,8.60
2023-01-02T20:54:35.529Z,8.50
2023-01-02T20:57:02.319Z,8.50
2023-01-02T20:59:28.988Z,8.40
2023-01-02T21:01:55.812Z,8.30
2023-01-02T21:04:24.920Z,8.30
2023-01-02T21:06:57.385Z,8.30
2023-01-02T21:09:23.982Z,8.20
2023-01-02T21:11:50.575Z,8.20
2023-01-02T21:14:17.282Z,8.20
2023-01-02T21:16:43.895Z,8.20
2023-01-02T21:19:10.603Z,8.10
2023-01-02T21:21:37.251Z,8.10
2023-01-02T21:24:04.059Z,8.10
2023-01-02T21:26:30.746Z,8.00
2023-01-02T21:28:57.341Z,8.00
2023-01-02T21:31:24.051Z,7.90
2023-01-02T21:33:50.721Z,8.00
2023-01-02T21:36:17.410Z,7.90
2023-01-02T21:38:44.548Z,7.90
2023-01-02T21:41:30.233Z,7.80
2023-01-02T21:43:56.961Z,7.80
2023-01-02T21:46:23.612Z,7.80
2023-01-02T21:48:50.535Z,7.80
2023-01-02T21:51:17.261Z,7.70
2023-01-02T21:53:47.049Z,7.70
2023-01-02T21:56:13.955Z,7.70
2023-01-02T21:58:40.869Z,7.70
2023-01-02T22:01:07.531Z,7.60
2023-01-02T22:03:35.453Z,7.70
2023-01-02T22:06:02.175Z,7.70
2023-01-02T22:08:28.846Z,7.70
2023-01-02T22:11:15.398Z,7.60
2023-01-02T22:13:42.022Z,7.60
2023-01-02T22:16:08.639Z,7.70
2023-01-02T22:18:38.280Z,7.70
2023-01-02T22:21:05.276Z,7.60
2023-01-02T22:23:31.919Z,7.60
2023-01-02T22:25:58.670Z,7.60
2023-01-02T22:28:25.391Z,7.50
2023-01-02T22:30:52.925Z,7.50
2023-01-02T22:33:19.655Z,7.50
2023-01-02T22:35:46.352Z,7.40
2023-01-02T22:38:13.099Z,7.50
2023-01-02T22:40:39.815Z,7.40
2023-01-02T22:43:08.352Z,7.40
2023-01-02T22:45:44.857Z,7.40
2023-01-02T22:48:27.032Z,7.40
2023-01-02T22:50:56.949Z,7.30
2023-01-02T22:53:29.882Z,7.30
2023-01-02T22:55:56.740Z,7.20
2023-01-02T22:58:24.635Z,7.20
2023-01-02T23:00:59.041Z,7.20
2023-01-02T23:03:29.347Z,7.10
2023-01-02T23:05:56.495Z,7.10
2023-01-02T23:08:23.113Z,7.00
2023-01-02T23:10:49.739Z,7.00
2023-01-02T23:13:16.411Z,7.00
2023-01-02T23:16:03.090Z,6.90
2023-01-02T23:18:56.008Z,6.90
2023-01-02T23:21:25.555Z,6.90
2023-01-02T23:23:53.669Z,6.90
2023-01-02T23:26:22.571Z,6.80
2023-01-02T23:29:06.624Z,6.80
2023-01-02T23:31:43.147Z,6.80
2023-01-02T23:34:12.041Z,6.80
2023-01-02T23:36:39.219Z,6.70
2023-01-02T23:39:07.426Z,6.70
2023-01-02T23:41:35.015Z,6.70
2023-01-02T23:44:01.845Z,6.70
2023-01-02T23:46:28.466Z,6.60
2023-01-02T23:48:55.067Z,6.60
2023-01-02T23:51:21.652Z,6.60
2023-01-02T23:53:48.236Z,6.60
2023-01-02T23:56:21.888Z,6.60
2023-01-02T23:58:50.240Z,6.60
